createdAt,value
2023-03-29T00:00:22.413Z,0.80
2023-03-29T00:02:50.530Z,0.80
2023-03-29T00:05:23.088Z,0.70
2023-03-29T00:07:54.109Z,0.70
2023-03-29T00:10:24.198Z,0.70
2023-03-29T00:12:52.913Z,0.70
2023-03-29T00:15:22.862Z,0.80
2023-03-29T00:17:51.447Z,0.80
2023-03-29T00:20:21.044Z,0.80
2023-03-29T00:22:49.032Z,0.80
2023-03-29T00:25:17.209Z,0.80
2023-03-29T00:27:45.395Z,0.80
2023-03-29T00:30:14.972Z,0.70
2023-03-29T00:32:43.169Z,0.80
2023-03-29T00:35:11.846Z,0.80
2023-03-29T00:37:41.419Z,0.80
2023-03-29T00:40:12.743Z,0.80
2023-03-29T00:42:45.236Z,0.80
2023-03-29T00:45:19.839Z,0.80
2023-03-29T00:47:51.475Z,0.80
2023-03-29T00:50:25.861Z,0.80
2023-03-29T00:53:00.990Z,0.80
2023-03-29T00:55:33.106Z,0.70
2023-03-29T00:58:02.702Z,0.70
2023-03-29T01:00:34.469Z,0.70
2023-03-29T01:03:07.087Z,0.70
2023-03-29T01:05:39.333Z,0.70
2023-03-29T01:08:18.207Z,0.70
2023-03-29T01:10:50.762Z,0.70
2023-03-29T01:13:27.355Z,0.70
2023-03-29T01:15:57.282Z,0.70
2023-03-29T01:18:25.362Z,0.70
2023-03-29T01:21:07.897Z,0.60
2023-03-29T01:23:51.114Z,0.50
2023-03-29T01:26:27.139Z,0.50
2023-03-29T01:29:00.832Z,0.50
2023-03-29T01:31:32.565Z,0.50
2023-03-29T01:34:06.953Z,0.50
2023-03-29T01:36:40.338Z,0.40
2023-03-29T01:39:08.940Z,0.40
2023-03-29T01:41:43.826Z,0.50
2023-03-29T01:44:18.871Z,0.50
2023-03-29T01:46:48.490Z,0.50
2023-03-29T01:49:23.448Z,0.50
2023-03-29T01:51:56.191Z,0.50
2023-03-29T01:54:29.210Z,0.50
2023-03-29T01:56:58.616Z,0.50
2023-03-29T01:59:32.310Z,0.50
2023-03-29T02:02:02.673Z,0.50
2023-03-29T02:04:34.559Z,0.50
2023-03-29T02:07:04.470Z,0.40
2023-03-29T02:09:34.487Z,0.50
2023-03-29T02:12:04.168Z,0.40
2023-03-29T02:14:33.607Z,0.50
2023-03-29T02:17:16.599Z,0.40
2023-03-29T02:19:50.219Z,0.40
2023-03-29T02:22:24.134Z,0.50
2023-03-29T02:24:59.155Z,0.40
2023-03-29T02:27:29.123Z,0.40
2023-03-29T02:29:59.247Z,0.50
2023-03-29T02:32:35.176Z,0.40
2023-03-29T02:35:07.145Z,0.40
2023-03-29T02:37:40.595Z,0.40
2023-03-29T02:40:12.612Z,0.40
2023-03-29T02:42:41.930Z,0.40
2023-03-29T02:45:13.387Z,0.40
2023-03-29T02:47:45.537Z,0.30
2023-03-29T02:50:14.104Z,0.40
2023-03-29T02:52:47.154Z,0.40
2023-03-29T02:55:18.808Z,0.40
2023-03-29T02:57:47.045Z,0.50
2023-03-29T03:00:18.884Z,0.50
2023-03-29T03:02:48.078Z,0.40
2023-03-29T03:05:16.258Z,0.40
2023-03-29T03:07:44.295Z,0.40
2023-03-29T03:10:12.658Z,0.40
2023-03-29T03:12:40.707Z,0.40
2023-03-29T03:15:10.582Z,0.40
2023-03-29T03:17:40.421Z,0.40
2023-03-29T03:20:13.066Z,0.50
2023-03-29T03:22:42.538Z,0.50
2023-03-29T03:25:13.333Z,0.50
2023-03-29T03:27:41.402Z,0.50
2023-03-29T03:30:11.124Z,0.40
2023-03-29T03:32:41.410Z,0.40
2023-03-29T03:35:11.685Z,0.30
2023-03-29T03:37:40.619Z,0.40
2023-03-29T03:40:11.595Z,0.40
2023-03-29T03:42:40.225Z,0.40
2023-03-29T03:45:10.663Z,0.40
2023-03-29T03:47:41.101Z,0.30
2023-03-29T03:50:10.280Z,0.10
2023-03-29T03:52:38.306Z,0.10
2023-03-29T03:55:06.816Z,0.10
2023-03-29T03:57:37.504Z,0.00
2023-03-29T04:00:19.313Z,0.00
2023-03-29T04:02:49.937Z,-0.10
2023-03-29T04:05:18.291Z,0.00
2023-03-29T04:07:46.341Z,0.00
2023-03-29T04:10:14.767Z,0.10
2023-03-29T04:12:43.042Z,0.00
2023-03-29T04:15:12.149Z,0.00
2023-03-29T04:17:40.450Z,0.00
2023-03-29T04:20:12.760Z,-0.10
2023-03-29T04:22:41.862Z,-0.10
2023-03-29T04:25:11.720Z,-0.10
2023-03-29T04:27:40.412Z,0.00
2023-03-29T04:30:09.791Z,0.00
2023-03-29T04:32:38.176Z,0.10
2023-03-29T04:35:07.026Z,0.10
2023-03-29T04:37:37.080Z,0.00
2023-03-29T04:40:08.446Z,0.00
2023-03-29T04:42:37.331Z,0.00
2023-03-29T04:45:07.000Z,0.00
2023-03-29T04:47:36.609Z,0.00
2023-03-29T04:50:05.201Z,0.10
2023-03-29T04:52:33.494Z,0.20
2023-03-29T04:55:03.144Z,0.20
2023-03-29T04:57:31.126Z,0.10
2023-03-29T04:59:59.276Z,0.20
2023-03-29T05:02:27.395Z,0.20
2023-03-29T05:04:55.470Z,0.30
2023-03-29T05:07:23.407Z,0.30
2023-03-29T05:09:52.010Z,0.40
2023-03-29T05:12:21.385Z,0.40
2023-03-29T05:14:49.331Z,0.40
2023-03-29T05:17:17.353Z,0.40
2023-03-29T05:19:45.508Z,0.30
2023-03-29T05:22:14.085Z,0.20
2023-03-29T05:24:42.150Z,0.20
2023-03-29T05:27:10.161Z,0.30
2023-03-29T05:29:39.580Z,0.30
2023-03-29T05:32:08.135Z,0.40
2023-03-29T05:34:36.567Z,0.40
2023-03-29T05:37:04.606Z,0.50
2023-03-29T05:39:35.144Z,0.60
2023-03-29T05:42:05.962Z,0.50
2023-03-29T05:44:34.288Z,0.60
2023-03-29T05:47:03.655Z,0.60
2023-03-29T05:49:31.944Z,0.40
2023-03-29T05:52:00.440Z,0.40
2023-03-29T05:54:28.444Z,0.60
2023-03-29T05:56:56.454Z,0.60
2023-03-29T05:59:24.753Z,0.60
2023-03-29T06:01:53.038Z,0.60
2023-03-29T06:04:22.905Z,0.60
2023-03-29T06:06:53.504Z,0.80
2023-03-29T06:09:21.686Z,0.80
2023-03-29T06:11:49.991Z,0.70
2023-03-29T06:14:19.012Z,0.80
2023-03-29T06:16:47.161Z,1.00
2023-03-29T06:19:15.296Z,1.10
2023-03-29T06:21:44.994Z,1.20
2023-03-29T06:24:13.462Z,1.30
2023-03-29T06:26:42.046Z,1.30
2023-03-29T06:29:10.342Z,1.30
2023-03-29T06:31:38.501Z,1.40
2023-03-29T06:34:06.709Z,1.40
2023-03-29T06:36:35.249Z,1.40
2023-03-29T06:39:08.708Z,1.40
2023-03-29T06:41:36.848Z,1.40
2023-03-29T06:44:06.775Z,1.40
2023-03-29T06:46:35.240Z,1.40
2023-03-29T06:49:03.342Z,1.50
2023-03-29T06:51:31.355Z,1.60
2023-03-29T06:54:00.003Z,1.60
2023-03-29T06:56:32.209Z,1.70
2023-03-29T06:59:00.546Z,1.90
2023-03-29T07:01:28.744Z,2.00
2023-03-29T07:03:57.651Z,2.10
2023-03-29T07:06:26.418Z,2.20
2023-03-29T07:08:55.260Z,2.20
2023-03-29T07:11:23.301Z,2.20
2023-03-29T07:13:52.740Z,2.30
2023-03-29T07:16:21.174Z,2.50
2023-03-29T07:18:49.214Z,2.80
2023-03-29T07:21:17.518Z,2.60
2023-03-29T07:23:45.854Z,2.80
2023-03-29T07:26:14.465Z,2.80
2023-03-29T07:28:58.715Z,2.90
2023-03-29T07:31:29.364Z,3.00
2023-03-29T07:33:57.501Z,3.00
2023-03-29T07:36:28.553Z,3.10
2023-03-29T07:38:57.836Z,3.10
2023-03-29T07:41:25.900Z,3.20
2023-03-29T07:43:54.318Z,3.20
2023-03-29T07:46:24.202Z,3.30
2023-03-29T07:48:52.721Z,3.30
2023-03-29T07:51:20.708Z,3.40
2023-03-29T07:53:49.216Z,3.50
2023-03-29T07:56:17.240Z,3.50
2023-03-29T07:58:46.579Z,3.60
2023-03-29T08:01:18.779Z,3.70
2023-03-29T08:03:49.262Z,3.70
2023-03-29T08:06:17.738Z,3.80
2023-03-29T08:08:46.258Z,3.80
2023-03-29T08:11:14.323Z,3.90
2023-03-29T08:13:42.585Z,4.00
2023-03-29T08:16:11.310Z,4.00
2023-03-29T08:18:39.304Z,4.10
2023-03-29T08:21:09.361Z,4.10
2023-03-29T08:23:37.426Z,4.20
2023-03-29T08:26:05.682Z,4.40
2023-03-29T08:28:33.629Z,4.60
2023-03-29T08:31:02.046Z,4.80
2023-03-29T08:33:30.343Z,4.90
2023-03-29T08:35:58.508Z,5.30
2023-03-29T08:38:28.111Z,5.50
2023-03-29T08:40:56.674Z,5.70
2023-03-29T08:43:47.044Z,5.80
2023-03-29T08:46:34.520Z,5.80
2023-03-29T08:49:05.022Z,5.90
2023-03-29T08:51:37.350Z,6.20
2023-03-29T08:54:12.890Z,6.30
2023-03-29T08:56:43.416Z,6.50
2023-03-29T08:59:20.578Z,6.90
2023-03-29T09:01:51.391Z,7.10
2023-03-29T09:04:23.530Z,7.30
2023-03-29T09:06:52.407Z,7.30
2023-03-29T09:09:24.120Z,7.30
2023-03-29T09:12:08.082Z,7.30
2023-03-29T09:14:48.858Z,7.70
2023-03-29T09:17:31.734Z,12.60
2023-03-29T09:20:10.432Z,16.70
2023-03-29T09:22:44.861Z,20.20
2023-03-29T09:25:21.386Z,23.60
2023-03-29T09:27:53.807Z,24.30
2023-03-29T09:30:27.103Z,26.20
2023-03-29T09:32:58.579Z,27.00
2023-03-29T09:35:32.059Z,26.30
2023-03-29T09:38:00.765Z,27.70
2023-03-29T09:40:35.941Z,28.20
2023-03-29T09:43:05.788Z,28.60
2023-03-29T09:45:34.195Z,28.40
2023-03-29T09:48:07.911Z,29.90
2023-03-29T09:50:38.896Z,30.20
2023-03-29T09:53:07.441Z,30.60
2023-03-29T09:55:40.358Z,32.50
2023-03-29T09:58:16.008Z,34.80
2023-03-29T10:00:45.856Z,35.90
2023-03-29T10:03:19.463Z,38.30
2023-03-29T10:05:50.206Z,40.10
2023-03-29T10:08:22.517Z,39.70
2023-03-29T10:10:52.276Z,38.70
2023-03-29T10:13:24.031Z,35.10
2023-03-29T10:16:02.365Z,32.40
2023-03-29T10:18:31.730Z,31.20
2023-03-29T10:21:02.588Z,33.10
2023-03-29T10:23:33.380Z,32.30
2023-03-29T10:26:05.550Z,30.70
2023-03-29T10:28:36.404Z,28.20
2023-03-29T10:31:08.045Z,25.40
2023-03-29T10:33:37.361Z,23.30
2023-03-29T10:36:08.022Z,21.50
2023-03-29T10:38:37.215Z,18.70
2023-03-29T10:41:10.005Z,17.10
2023-03-29T10:43:40.604Z,16.20
2023-03-29T10:46:13.267Z,15.60
2023-03-29T10:48:47.001Z,14.90
2023-03-29T10:51:16.227Z,13.70
2023-03-29T10:53:44.532Z,12.90
2023-03-29T10:56:28.021Z,12.40
2023-03-29T10:59:18.441Z,12.10
2023-03-29T11:01:58.982Z,12.10
2023-03-29T11:04:34.524Z,11.70
2023-03-29T11:07:27.431Z,11.60
2023-03-29T11:10:05.995Z,11.10
2023-03-29T11:12:45.041Z,10.90
2023-03-29T11:15:23.552Z,10.70
2023-03-29T11:17:59.904Z,10.60
2023-03-29T11:20:33.937Z,10.60
2023-03-29T11:23:12.267Z,10.70
2023-03-29T11:25:54.333Z,10.40
2023-03-29T11:28:32.465Z,10.20
2023-03-29T11:31:10.935Z,10.30
2023-03-29T11:33:53.118Z,10.40
2023-03-29T11:36:26.808Z,10.40
2023-03-29T11:39:05.299Z,10.40
2023-03-29T11:41:36.834Z,10.50
2023-03-29T11:44:09.933Z,10.60
2023-03-29T11:46:40.719Z,10.60
2023-03-29T11:49:15.505Z,10.60
2023-03-29T11:51:48.942Z,10.30
2023-03-29T11:54:23.167Z,10.20
2023-03-29T11:56:57.343Z,10.20
2023-03-29T11:59:31.717Z,10.10
2023-03-29T12:02:06.636Z,10.20
2023-03-29T12:04:39.775Z,10.30
2023-03-29T12:07:15.803Z,10.40
2023-03-29T12:09:51.023Z,10.60
2023-03-29T12:12:25.664Z,10.70
2023-03-29T12:15:04.431Z,10.70
2023-03-29T12:17:38.857Z,10.70
2023-03-29T12:20:17.192Z,10.90
2023-03-29T12:22:49.139Z,10.80
2023-03-29T12:25:22.743Z,10.80
2023-03-29T12:28:01.886Z,10.90
2023-03-29T12:30:40.881Z,11.00
2023-03-29T12:33:27.685Z,11.00
2023-03-29T12:36:18.011Z,11.30
2023-03-29T12:38:48.166Z,11.30
2023-03-29T12:41:19.109Z,11.30
2023-03-29T12:43:48.612Z,11.40
2023-03-29T12:46:20.324Z,11.70
2023-03-29T12:48:54.553Z,11.60
2023-03-29T12:51:29.410Z,11.50
2023-03-29T12:54:07.320Z,11.40
2023-03-29T12:56:42.751Z,11.40
2023-03-29T12:59:35.148Z,11.50
2023-03-29T13:02:27.234Z,11.60
2023-03-29T13:04:57.390Z,11.40
2023-03-29T13:07:34.874Z,11.40
2023-03-29T13:10:04.979Z,11.60
2023-03-29T13:12:41.943Z,11.70
2023-03-29T13:15:24.468Z,11.70
2023-03-29T13:18:01.269Z,11.70
2023-03-29T13:20:43.728Z,11.80
2023-03-29T13:23:27.480Z,12.00
2023-03-29T13:26:13.095Z,12.10
2023-03-29T13:28:56.605Z,11.90
2023-03-29T13:31:35.526Z,11.50
2023-03-29T13:36:49.691Z,11.50
2023-03-29T13:39:22.733Z,11.80
2023-03-29T13:41:52.099Z,11.70
2023-03-29T13:44:29.741Z,11.70
2023-03-29T13:47:06.991Z,11.70
2023-03-29T13:49:37.048Z,11.60
2023-03-29T13:52:16.703Z,11.60
2023-03-29T13:54:53.020Z,11.60
2023-03-29T13:57:24.209Z,11.80
2023-03-29T13:59:58.130Z,11.80
2023-03-29T14:02:42.559Z,11.80
2023-03-29T14:05:14.731Z,11.80
2023-03-29T14:07:47.785Z,11.80
2023-03-29T14:10:18.958Z,11.70
2023-03-29T14:12:47.593Z,11.90
2023-03-29T14:15:27.732Z,12.00
2023-03-29T14:18:00.342Z,12.10
2023-03-29T14:20:32.313Z,12.10
2023-03-29T14:23:00.545Z,12.00
2023-03-29T14:25:30.407Z,12.00
2023-03-29T14:27:58.479Z,11.90
2023-03-29T14:30:29.045Z,11.80
2023-03-29T14:32:57.479Z,11.70
2023-03-29T14:35:33.209Z,11.70
2023-03-29T14:38:02.598Z,11.70
2023-03-29T14:40:32.165Z,11.60
2023-03-29T14:43:05.344Z,11.60
2023-03-29T14:45:33.630Z,11.50
2023-03-29T14:48:02.159Z,11.40
2023-03-29T14:50:32.394Z,11.30
2023-03-29T14:53:01.433Z,11.30
2023-03-29T14:55:31.060Z,11.30
2023-03-29T14:58:00.316Z,11.20
2023-03-29T15:00:31.227Z,11.30
2023-03-29T15:03:02.009Z,11.20
2023-03-29T15:05:41.164Z,11.20
2023-03-29T15:08:14.629Z,11.10
2023-03-29T15:10:45.074Z,11.10
2023-03-29T15:13:19.522Z,11.10
2023-03-29T15:15:47.762Z,11.10
2023-03-29T15:18:17.884Z,11.10
2023-03-29T15:20:47.338Z,11.10
2023-03-29T15:23:25.429Z,11.00
2023-03-29T15:25:58.430Z,10.80
2023-03-29T15:28:31.080Z,10.90
2023-03-29T15:31:07.885Z,10.80
2023-03-29T15:33:38.549Z,10.70
2023-03-29T15:36:10.719Z,10.70
2023-03-29T15:38:44.764Z,10.70
2023-03-29T15:41:14.597Z,10.50
2023-03-29T15:43:43.122Z,10.50
2023-03-29T15:46:13.904Z,10.50
2023-03-29T15:48:42.221Z,10.60
2023-03-29T15:51:12.742Z,10.60
2023-03-29T15:53:41.390Z,10.60
2023-03-29T15:56:11.411Z,10.40
2023-03-29T15:58:40.003Z,10.40
2023-03-29T16:01:16.044Z,10.30
2023-03-29T16:03:47.678Z,10.20
2023-03-29T16:06:18.455Z,10.20
2023-03-29T16:08:46.516Z,10.20
2023-03-29T16:11:14.862Z,10.10
2023-03-29T16:13:43.031Z,10.00
2023-03-29T16:16:12.167Z,10.00
2023-03-29T16:18:40.610Z,10.00
2023-03-29T16:21:12.640Z,10.00
2023-03-29T16:23:42.915Z,9.90
2023-03-29T16:26:13.665Z,9.90
2023-03-29T16:28:42.157Z,9.80
2023-03-29T16:31:11.959Z,9.70
2023-03-29T16:33:40.494Z,9.70
2023-03-29T16:36:11.665Z,9.50
2023-03-29T16:38:41.564Z,9.40
2023-03-29T16:41:14.977Z,9.40
2023-03-29T16:43:43.137Z,9.40
2023-03-29T16:46:12.924Z,9.40
2023-03-29T16:48:41.014Z,9.40
2023-03-29T16:51:10.530Z,9.30
2023-03-29T16:53:38.797Z,9.30
2023-03-29T16:56:08.953Z,9.30
2023-03-29T16:58:37.276Z,9.30
2023-03-29T17:01:09.988Z,9.40
2023-03-29T17:03:38.490Z,9.40
2023-03-29T17:06:08.024Z,9.30
2023-03-29T17:08:36.708Z,9.30
2023-03-29T17:11:06.335Z,9.20
2023-03-29T17:13:37.465Z,9.20
2023-03-29T17:16:06.751Z,9.30
2023-03-29T17:18:34.930Z,9.30
2023-03-29T17:21:03.176Z,9.40
2023-03-29T17:23:31.178Z,9.30
2023-03-29T17:25:59.209Z,9.30
2023-03-29T17:28:27.302Z,9.30
2023-03-29T17:30:56.736Z,9.20
2023-03-29T17:33:26.354Z,9.20
2023-03-29T17:35:54.649Z,9.20
2023-03-29T17:38:22.695Z,9.10
2023-03-29T17:40:53.961Z,9.00
2023-03-29T17:43:22.170Z,8.90
2023-03-29T17:45:52.204Z,8.90
2023-03-29T17:48:21.874Z,8.80
2023-03-29T17:50:49.891Z,8.70
2023-03-29T17:53:17.992Z,8.70
2023-03-29T17:55:46.351Z,8.60
2023-03-29T17:58:14.453Z,8.60
2023-03-29T18:00:42.476Z,8.60
2023-03-29T18:03:10.626Z,8.50
2023-03-29T18:05:40.122Z,8.50
2023-03-29T18:08:08.701Z,8.40
2023-03-29T18:10:36.863Z,8.40
2023-03-29T18:13:04.988Z,8.40
2023-03-29T18:15:33.001Z,8.30
2023-03-29T18:18:01.402Z,8.20
2023-03-29T18:20:29.392Z,8.10
2023-03-29T18:22:58.727Z,8.20
2023-03-29T18:25:27.091Z,8.20
2023-03-29T18:27:55.123Z,8.10
2023-03-29T18:30:23.178Z,8.10
2023-03-29T18:32:51.160Z,8.00
2023-03-29T18:35:19.304Z,8.00
2023-03-29T18:37:47.326Z,8.00
2023-03-29T18:40:20.420Z,8.00
2023-03-29T18:42:48.427Z,8.00
2023-03-29T18:45:16.456Z,7.90
2023-03-29T18:47:44.575Z,7.90
2023-03-29T18:50:13.274Z,7.90
2023-03-29T18:52:41.288Z,7.90
2023-03-29T18:55:10.252Z,7.80
2023-03-29T18:57:39.638Z,7.70
2023-03-29T19:00:12.417Z,7.70
2023-03-29T19:02:40.647Z,7.70
2023-03-29T19:05:10.072Z,7.70
2023-03-29T19:07:38.300Z,7.70
2023-03-29T19:10:08.149Z,7.70
2023-03-29T19:12:36.797Z,7.60
2023-03-29T19:15:07.253Z,7.60
2023-03-29T19:17:35.321Z,7.50
2023-03-29T19:20:04.815Z,7.50
2023-03-29T19:22:33.999Z,7.50
2023-03-29T19:25:02.058Z,7.40
2023-03-29T19:27:30.205Z,7.40
2023-03-29T19:29:58.268Z,7.30
2023-03-29T19:32:27.677Z,7.30
2023-03-29T19:34:56.029Z,7.30
2023-03-29T19:37:24.032Z,7.30
2023-03-29T19:39:54.590Z,7.20
2023-03-29T19:42:22.590Z,7.20
2023-03-29T19:44:50.624Z,7.20
2023-03-29T19:47:18.710Z,7.10
2023-03-29T19:49:48.075Z,7.20
2023-03-29T19:52:16.145Z,7.20
2023-03-29T19:54:44.238Z,7.20
2023-03-29T19:57:12.571Z,7.10
2023-03-29T19:59:41.089Z,7.10
2023-03-29T20:02:11.764Z,7.00
2023-03-29T20:04:40.082Z,7.00
2023-03-29T20:07:09.615Z,7.00
2023-03-29T20:09:37.722Z,7.00
2023-03-29T20:12:06.171Z,7.00
2023-03-29T20:14:34.957Z,6.90
2023-03-29T20:17:03.463Z,6.90
2023-03-29T20:19:31.451Z,6.90
2023-03-29T20:22:00.733Z,6.90
2023-03-29T20:24:31.362Z,6.80
2023-03-29T20:26:59.422Z,6.70
2023-03-29T20:29:27.717Z,6.70
2023-03-29T20:31:55.746Z,6.80
2023-03-29T20:34:23.882Z,6.90
2023-03-29T20:36:55.186Z,7.00
2023-03-29T20:39:25.710Z,7.10
2023-03-29T20:41:55.549Z,7.00
2023-03-29T20:44:26.259Z,7.00
2023-03-29T20:47:05.018Z,7.10
2023-03-29T20:49:37.189Z,7.10
2023-03-29T20:52:08.402Z,7.00
2023-03-29T20:54:37.808Z,7.00
2023-03-29T20:57:07.954Z,6.90
2023-03-29T20:59:36.160Z,6.90
2023-03-29T21:02:04.272Z,6.90
2023-03-29T21:04:32.413Z,6.90
2023-03-29T21:07:02.998Z,6.80
2023-03-29T21:09:34.320Z,6.80
2023-03-29T21:12:02.611Z,6.70
2023-03-29T21:14:33.129Z,6.70
2023-03-29T21:17:01.486Z,6.80
2023-03-29T21:19:29.833Z,6.80
2023-03-29T21:21:58.124Z,6.80
2023-03-29T21:24:26.185Z,6.70
2023-03-29T21:26:54.122Z,6.70
2023-03-29T21:29:22.085Z,6.80
2023-03-29T21:31:51.516Z,6.80
2023-03-29T21:34:19.546Z,6.70
2023-03-29T21:36:47.610Z,6.80
2023-03-29T21:39:15.625Z,6.80
2023-03-29T21:41:43.802Z,6.80
2023-03-29T21:44:11.815Z,6.80
2023-03-29T21:46:39.838Z,6.80
2023-03-29T21:49:09.337Z,6.80
2023-03-29T21:51:37.344Z,6.90
2023-03-29T21:54:05.813Z,7.00
2023-03-29T21:56:33.830Z,7.00
2023-03-29T21:59:01.825Z,7.00
2023-03-29T22:01:29.900Z,7.00
2023-03-29T22:03:57.889Z,7.00
2023-03-29T22:06:27.256Z,7.10
2023-03-29T22:08:55.242Z,7.00
2023-03-29T22:11:25.662Z,7.00
2023-03-29T22:13:53.759Z,7.10
2023-03-29T22:16:22.156Z,7.00
2023-03-29T22:18:50.490Z,6.90
2023-03-29T22:21:22.527Z,7.00
2023-03-29T22:23:54.292Z,7.00
2023-03-29T22:26:24.370Z,7.00
2023-03-29T22:28:52.714Z,7.00
2023-03-29T22:31:23.248Z,7.00
2023-03-29T22:33:51.372Z,7.00
2023-03-29T22:36:21.042Z,7.00
2023-03-29T22:38:51.321Z,7.00
2023-03-29T22:41:21.671Z,7.10
2023-03-29T22:43:51.160Z,7.10
2023-03-29T22:46:19.981Z,7.00
2023-03-29T22:48:48.187Z,7.00
2023-03-29T22:51:16.738Z,7.00
2023-03-29T22:53:46.986Z,7.10
2023-03-29T22:56:17.031Z,7.10
2023-03-29T22:58:45.790Z,7.10
2023-03-29T23:01:15.810Z,7.10
2023-03-29T23:03:43.949Z,7.10
2023-03-29T23:06:12.183Z,7.10
2023-03-29T23:08:40.140Z,7.00
2023-03-29T23:11:08.312Z,7.10
2023-03-29T23:13:37.682Z,7.10
2023-03-29T23:16:06.179Z,7.10
2023-03-29T23:18:37.655Z,7.00
2023-03-29T23:21:07.626Z,7.10
2023-03-29T23:23:36.852Z,7.10
2023-03-29T23:26:06.181Z,7.10
2023-03-29T23:28:34.703Z,7.10
2023-03-29T23:31:06.772Z,7.20
2023-03-29T23:33:36.603Z,7.30
2023-03-29T23:36:06.757Z,7.20
2023-03-29T23:38:36.562Z,7.30
2023-03-29T23:41:07.009Z,7.30
2023-03-29T23:43:37.196Z,7.40
2023-03-29T23:46:08.650Z,7.40
2023-03-29T23:48:36.639Z,7.30
2023-03-29T23:51:05.093Z,7.40
2023-03-29T23:53:33.418Z,7.40
2023-03-29T23:56:02.994Z,7.40
2023-03-29T23:58:32.588Z,7.50
